« Back
NWS Peachtree City, Ga » Text Product » ATL Terminal Aerodrome Forecast


Printer-friendly Version
Current Version              Previous Versions:   1  2  3  4  5  6  7  8  9  

Terminal Aerodrome Forecast

108
FTUS42 KFFC 031945 AAA
TAFATL
TAF AMD
KATL 031945Z 0320/0424 27011G18KT P6SM -RA SCT030 BKN050
     FM040000 25009KT P6SM SCT045 BKN080
     FM040600 23008KT P6SM VCSH SCT020 BKN040 PROB30 0406/0410
      VRB15G25KT 3SM TSRA BKN020CB
     FM041000 25007KT P6SM -SHRA SCT015 BKN035
     FM041700 27010G17KT P6SM SCT045 BKN100=

USA.gov is the U.S. government's official web portal to all federal, state and local government web resources and services.